Time;durP1;ratioP1;P1;durP2;ratioP2;P2;SDS_P1;SDS_P2;PMS_P1;PMS_P2;Temp;Humidity;BMP_temperature;BMP_pressure;BME280_temperature;BME280_humidity;BME280_pressure;Samples;Min_cycle;Max_cycle;Signal;HPM_P1;HPM_P2
2022/06/16 00:03:03;;;;;;;;;;;;;;;15.74;80.13;99265.91;8295875;28;20328;-77
2022/06/16 00:07:04;;;;;;;;;;;;;;;15.71;80.91;99265.09;8305500;28;19929;-76
2022/06/16 00:11:19;;;;;;;;;;;;;;;15.65;81.40;99254.81;8271205;28;20037;-77
2022/06/16 00:15:22;;;;;;;;;;;;;;;15.64;81.36;99252.25;8271091;28;19961;-77
2022/06/16 00:19:24;;;;;;;;;;;;;;;15.58;81.44;99249.72;8333808;28;20039;-77
2022/06/16 00:23:26;;;;;;;;;;;;;;;15.51;81.53;99246.44;8339625;28;19968;-77
2022/06/16 00:27:27;;;;;;;;;;;;;;;15.46;81.70;99255.31;8322538;28;19929;-77
2022/06/16 00:31:29;;;;;;;;;;;;;;;15.38;81.91;99243.28;8326134;28;19976;-76
2022/06/16 00:35:31;;;;;;;;;;;;;;;15.30;81.74;99252.25;8324416;28;19929;-76
2022/06/16 00:39:32;;;;;;;;;;;;;;;15.25;81.75;99254.09;8322668;28;19997;-76
2022/06/16 00:43:34;;;;;;;;;;;;;;;15.16;82.24;99249.97;8300793;28;19929;-77
2022/06/16 00:47:35;;;;;;;;;;;;;;;15.14;82.63;99243.06;8337625;28;19929;-76
2022/06/16 00:52:08;;;;;;;;;;;;;;;15.08;82.91;99238.81;8316961;28;19980;-76
2022/06/16 00:56:13;;;;;;;;;;;;;;;15.02;82.93;99242.47;8299562;28;20029;-76
2022/06/16 01:00:28;;;;;;;;;;;;;;;14.93;82.94;99247.06;8330813;28;19928;-77
2022/06/16 01:08:53;;;;;;;;;;;;;;;14.84;83.69;99235.06;8324173;28;19932;-76
2022/06/16 01:17:39;;;;;;;;;;;;;;;14.71;83.78;99233.63;8322174;28;19948;-76
2022/06/16 01:21:40;;;;;;;;;;;;;;;14.65;83.94;99232.03;8328831;28;20257;-77
2022/06/16 01:25:51;;;;;;;;;;;;;;;14.61;83.70;99227.78;8324390;28;20308;-77
2022/06/16 01:29:55;;;;;;;;;;;;;;;14.58;84.54;99240.06;8325974;28;19929;-77
2022/06/16 01:34:00;;;;;;;;;;;;;;;14.50;84.78;99242.84;8311061;28;19929;-77
2022/06/16 01:38:09;;;;;;;;;;;;;;;14.46;84.86;99241.19;8323152;28;20018;-76
2022/06/16 01:42:15;;;;;;;;;;;;;;;14.43;84.95;99246.47;8304786;28;19939;-77
2022/06/16 01:46:31;;;;;;;;;;;;;;;14.40;85.20;99241.31;8322412;28;19984;-77
2022/06/16 01:50:35;;;;;;;;;;;;;;;14.38;85.07;99241.34;8337275;28;19964;-77
2022/06/16 01:54:41;;;;;;;;;;;;;;;14.34;84.90;99244.88;8323915;28;20055;-76
2022/06/16 01:58:45;;;;;;;;;;;;;;;14.32;85.92;99254.50;8321724;28;19983;-77
2022/06/16 02:02:50;;;;;;;;;;;;;;;14.30;85.46;99253.69;8305097;28;19968;-76
2022/06/16 02:06:54;;;;;;;;;;;;;;;14.23;85.93;99259.09;8323885;28;19929;-76
2022/06/16 02:11:09;;;;;;;;;;;;;;;14.23;85.87;99262.56;8312391;28;20024;-76
2022/06/16 02:15:37;;;;;;;;;;;;;;;14.22;86.19;99258.22;8314588;28;20027;-77
2022/06/16 02:19:39;;;;;;;;;;;;;;;14.19;85.81;99253.09;8266879;28;19959;-76
2022/06/16 02:23:41;;;;;;;;;;;;;;;14.14;85.52;99260.13;8347012;28;19971;-76
2022/06/16 02:27:43;;;;;;;;;;;;;;;14.11;85.85;99254.97;8341908;28;19969;-77
2022/06/16 02:31:53;;;;;;;;;;;;;;;14.07;86.29;99261.16;8309624;28;19929;-77
2022/06/16 02:36:02;;;;;;;;;;;;;;;14.00;86.03;99265.63;8312166;28;19939;-76
2022/06/16 02:40:22;;;;;;;;;;;;;;;13.93;86.64;99271.00;8311625;28;20808;-77
2022/06/16 02:44:40;;;;;;;;;;;;;;;13.88;86.39;99258.06;8311848;28;20060;-76
2022/06/16 02:49:05;;;;;;;;;;;;;;;13.86;86.33;99276.38;8321942;28;19929;-77
2022/06/16 02:57:52;;;;;;;;;;;;;;;13.83;86.95;99281.66;8317707;28;19936;-76
2022/06/16 03:02:00;;;;;;;;;;;;;;;13.84;87.34;99285.97;8290149;28;19929;-76
2022/06/16 03:06:01;;;;;;;;;;;;;;;13.78;87.05;99293.91;8325519;28;19929;-77
2022/06/16 03:10:03;;;;;;;;;;;;;;;13.70;86.43;99301.03;8313347;28;19976;-76
2022/06/16 03:14:05;;;;;;;;;;;;;;;13.70;87.47;99297.56;8318063;28;20306;-76
2022/06/16 03:18:07;;;;;;;;;;;;;;;13.70;87.17;99306.25;8329629;28;19929;-76
2022/06/16 03:22:09;;;;;;;;;;;;;;;13.67;87.31;99303.69;8332240;28;19964;-77
2022/06/16 03:26:12;;;;;;;;;;;;;;;13.67;87.74;99306.31;8328857;28;19936;-76
2022/06/16 03:30:14;;;;;;;;;;;;;;;13.63;87.45;99304.63;8310091;28;20356;-77
2022/06/16 03:34:18;;;;;;;;;;;;;;;13.61;87.08;99304.66;8303104;28;19964;-77
2022/06/16 03:42:47;;;;;;;;;;;;;;;13.60;87.58;99296.84;8325853;28;19925;-78
2022/06/16 03:46:59;;;;;;;;;;;;;;;13.59;87.77;99298.59;8297569;28;19929;-78
2022/06/16 03:51:04;;;;;;;;;;;;;;;13.56;87.58;99300.41;8313331;28;20043;-78
2022/06/16 03:55:07;;;;;;;;;;;;;;;13.55;88.31;99309.13;8312311;28;19925;-78
2022/06/16 03:59:09;;;;;;;;;;;;;;;13.57;87.69;99316.03;8329747;28;19936;-78
2022/06/16 04:07:43;;;;;;;;;;;;;;;13.52;88.35;99322.25;8271988;28;19935;-78
2022/06/16 04:11:52;;;;;;;;;;;;;;;13.58;88.59;99319.50;8319317;28;19925;-78
2022/06/16 04:15:54;;;;;;;;;;;;;;;13.61;88.87;99329.88;8314928;28;19929;-76
2022/06/16 04:20:14;;;;;;;;;;;;;;;13.67;88.09;99331.53;8311364;28;20440;-76
2022/06/16 04:24:17;;;;;;;;;;;;;;;13.74;88.43;99330.53;8323618;28;20740;-74
2022/06/16 04:28:18;;;;;;;;;;;;;;;13.84;87.81;99337.31;8323384;28;19940;-76
2022/06/16 04:32:19;;;;;;;;;;;;;;;13.95;87.69;99332.75;8319466;28;20409;-76
2022/06/16 04:36:21;;;;;;;;;;;;;;;14.11;87.47;99334.16;8281464;28;20461;-76
2022/06/16 04:40:22;;;;;;;;;;;;;;;14.28;86.33;99346.03;8290737;28;19956;-76
2022/06/16 04:44:24;;;;;;;;;;;;;;;14.43;86.06;99359.69;8287994;28;20065;-76
2022/06/16 04:48:26;;;;;;;;;;;;;;;14.60;85.33;99354.09;8287975;28;19991;-76
2022/06/16 04:52:27;;;;;;;;;;;;;;;14.75;84.15;99364.22;8317380;28;19953;-77
2022/06/16 04:56:29;;;;;;;;;;;;;;;14.94;83.76;99366.44;8293064;28;20040;-77
2022/06/16 05:00:30;;;;;;;;;;;;;;;15.16;83.46;99361.56;8282472;28;19929;-76
2022/06/16 05:04:39;;;;;;;;;;;;;;;15.34;82.27;99368.97;8314773;28;19959;-76
2022/06/16 05:08:41;;;;;;;;;;;;;;;15.52;81.69;99371.16;8291132;28;19961;-77
2022/06/16 05:12:42;;;;;;;;;;;;;;;15.78;81.41;99380.13;8298222;28;20257;-76
2022/06/16 05:16:43;;;;;;;;;;;;;;;16.02;79.85;99388.22;8297994;28;20633;-76
2022/06/16 05:20:45;;;;;;;;;;;;;;;16.33;79.18;99393.47;8295113;28;19929;-77
2022/06/16 05:24:47;;;;;;;;;;;;;;;16.56;76.90;99384.97;8276235;28;19957;-77
2022/06/16 05:28:49;;;;;;;;;;;;;;;16.83;76.79;99398.19;8305661;28;19929;-76
2022/06/16 05:32:51;;;;;;;;;;;;;;;17.21;74.97;99407.53;8299340;28;19933;-76
2022/06/16 05:36:52;;;;;;;;;;;;;;;17.74;73.57;99407.59;8293082;28;19930;-74
2022/06/16 05:41:02;;;;;;;;;;;;;;;18.28;72.27;99414.50;8289557;28;19930;-74
2022/06/16 05:45:03;;;;;;;;;;;;;;;18.73;70.22;99432.22;8288937;28;19930;-76
2022/06/16 05:49:05;;;;;;;;;;;;;;;19.15;68.85;99425.31;8297316;28;19933;-76
2022/06/16 05:53:07;;;;;;;;;;;;;;;19.63;67.23;99431.38;8300525;28;19975;-77
2022/06/16 05:57:08;;;;;;;;;;;;;;;20.13;64.88;99435.41;8296507;28;20023;-76
2022/06/16 06:01:11;;;;;;;;;;;;;;;20.68;61.67;99443.56;8291432;28;19968;-76
2022/06/16 06:05:12;;;;;;;;;;;;;;;21.14;59.12;99444.09;8325320;28;19926;-77
2022/06/16 06:18:06;;;;;;;;;;;;;;;22.84;52.88;99457.69;8300195;28;20326;-77
2022/06/16 06:22:11;;;;;;;;;;;;;;;23.41;50.54;99461.59;8296022;28;19929;-77
2022/06/16 06:26:13;;;;;;;;;;;;;;;23.86;48.86;99467.88;8299205;28;19929;-77
2022/06/16 06:30:17;;;;;;;;;;;;;;;24.19;47.64;99470.38;8330486;28;19930;-77
2022/06/16 06:34:19;;;;;;;;;;;;;;;24.57;46.76;99475.22;8312900;28;19963;-77
2022/06/16 06:38:20;;;;;;;;;;;;;;;24.80;46.05;99488.00;8312045;28;19971;-76
2022/06/16 06:42:22;;;;;;;;;;;;;;;24.93;45.67;99486.25;8329546;28;20467;-76
2022/06/16 06:46:23;;;;;;;;;;;;;;;25.07;45.51;99492.56;8322975;28;19967;-77
2022/06/16 06:50:28;;;;;;;;;;;;;;;25.35;45.23;99503.19;8351135;28;19951;-77
2022/06/16 06:54:29;;;;;;;;;;;;;;;25.57;44.80;99507.97;8330927;28;20004;-77
2022/06/16 06:58:33;;;;;;;;;;;;;;;25.78;44.02;99503.97;8306544;28;19933;-77
2022/06/16 07:02:35;;;;;;;;;;;;;;;25.96;42.92;99504.56;8340103;28;19925;-77
2022/06/16 07:06:37;;;;;;;;;;;;;;;25.91;43.13;99514.66;8343067;28;20391;-77
2022/06/16 07:10:40;;;;;;;;;;;;;;;26.11;43.29;99508.88;8338713;28;20233;-77
2022/06/16 07:14:48;;;;;;;;;;;;;;;26.21;41.03;99517.06;8325416;28;19995;-77
2022/06/16 07:18:49;;;;;;;;;;;;;;;26.37;42.44;99522.28;8330398;28;20052;-77
2022/06/16 07:22:51;;;;;;;;;;;;;;;26.51;41.44;99524.84;8334028;28;20689;-76
2022/06/16 07:26:52;;;;;;;;;;;;;;;26.79;41.77;99527.34;8343611;28;20352;-75
2022/06/16 07:30:53;;;;;;;;;;;;;;;26.79;40.57;99530.00;8336257;28;20011;-75
2022/06/16 07:35:17;;;;;;;;;;;;;;;27.02;40.61;99533.78;8331732;28;19940;-75
2022/06/16 07:39:18;;;;;;;;;;;;;;;27.19;39.33;99532.59;8290315;28;19940;-75
2022/06/16 07:43:19;;;;;;;;;;;;;;;27.36;39.26;99528.72;8337842;28;20508;-75
2022/06/16 07:47:21;;;;;;;;;;;;;;;27.60;39.75;99536.78;8338349;28;19929;-76
2022/06/16 07:51:22;;;;;;;;;;;;;;;27.54;37.68;99547.91;8336418;28;19929;-75
2022/06/16 07:55:24;;;;;;;;;;;;;;;27.74;38.96;99538.47;8345274;28;19929;-76
2022/06/16 07:59:25;;;;;;;;;;;;;;;27.96;38.53;99544.78;8322362;28;19929;-75
2022/06/16 08:03:28;;;;;;;;;;;;;;;28.14;38.21;99547.91;8330543;28;19932;-75
2022/06/16 08:07:29;;;;;;;;;;;;;;;28.40;37.25;99553.19;8313422;28;19980;-75
2022/06/16 08:15:51;;;;;;;;;;;;;;;28.54;35.91;99569.00;8346406;28;19937;-73
2022/06/16 08:19:53;;;;;;;;;;;;;;;28.54;36.00;99567.19;8321875;28;19972;-74
2022/06/16 08:23:54;;;;;;;;;;;;;;;28.69;35.13;99573.19;8314645;28;19940;-73
2022/06/16 08:27:55;;;;;;;;;;;;;;;28.79;35.00;99568.00;8338806;28;20028;-73
2022/06/16 08:31:57;;;;;;;;;;;;;;;28.95;35.49;99571.22;8338213;28;19933;-73
2022/06/16 08:35:59;;;;;;;;;;;;;;;29.09;34.38;99571.00;8340538;28;19935;-70
2022/06/16 08:40:00;;;;;;;;;;;;;;;29.38;33.65;99573.19;8346321;28;19929;-72
2022/06/16 08:44:08;;;;;;;;;;;;;;;29.66;33.08;99577.25;8294241;28;19976;-75
2022/06/16 08:48:12;;;;;;;;;;;;;;;29.66;33.88;99574.56;8339007;28;19928;-73
2022/06/16 08:52:19;;;;;;;;;;;;;;;29.70;32.84;99578.69;8342036;28;19971;-73
2022/06/16 08:56:37;;;;;;;;;;;;;;;29.55;33.03;99580.78;8301002;28;19928;-73
2022/06/16 09:00:41;;;;;;;;;;;;;;;29.66;32.74;99582.59;8313896;28;19928;-76
2022/06/16 09:04:50;;;;;;;;;;;;;;;29.95;32.91;99586.44;8345519;28;20233;-74
2022/06/16 09:09:10;;;;;;;;;;;;;;;30.14;32.05;99588.47;8328422;28;19967;-72
2022/06/16 09:13:18;;;;;;;;;;;;;;;30.10;30.74;99597.75;8336488;28;19972;-72
2022/06/16 09:17:25;;;;;;;;;;;;;;;30.10;31.29;99586.19;8328536;28;19932;-73
2022/06/16 09:21:46;;;;;;;;;;;;;;;30.38;33.34;99586.47;8332201;28;19943;-75
2022/06/16 09:25:53;;;;;;;;;;;;;;;30.34;30.09;99595.75;8329684;28;20361;-73
2022/06/16 09:29:58;;;;;;;;;;;;;;;30.28;30.88;99587.34;8329019;28;19928;-72
2022/06/16 09:34:16;;;;;;;;;;;;;;;30.33;29.98;99587.81;8330116;28;19968;-73
2022/06/16 09:38:17;;;;;;;;;;;;;;;30.47;30.45;99592.03;8335179;28;19944;-73
2022/06/16 09:42:37;;;;;;;;;;;;;;;30.10;31.33;99602.25;8329348;28;19929;-75
2022/06/16 09:46:41;;;;;;;;;;;;;;;30.21;30.37;99604.91;8326977;28;19961;-73
2022/06/16 09:50:49;;;;;;;;;;;;;;;30.16;30.18;99607.94;8334752;28;19986;-73
2022/06/16 09:54:55;;;;;;;;;;;;;;;30.32;31.73;99619.13;8333971;28;19929;-74
2022/06/16 09:58:59;;;;;;;;;;;;;;;30.32;29.49;99620.94;8324133;28;19928;-74
2022/06/16 10:03:12;;;;;;;;;;;;;;;30.45;30.40;99634.19;8308564;28;20791;-74
2022/06/16 10:07:18;;;;;;;;;;;;;;;30.46;28.37;99633.22;8333429;28;20035;-74
2022/06/16 10:11:30;;;;;;;;;;;;;;;30.58;29.46;99634.88;8335689;28;19964;-74
2022/06/16 10:15:41;;;;;;;;;;;;;;;30.33;29.50;99641.41;8318537;28;19929;-74
2022/06/16 10:19:44;;;;;;;;;;;;;;;30.47;28.89;99642.94;8325115;28;19949;-72
2022/06/16 10:23:51;;;;;;;;;;;;;;;30.27;27.25;99648.13;8333224;28;20310;-73
2022/06/16 10:27:56;;;;;;;;;;;;;;;30.43;28.32;99650.41;8335063;28;20427;-72
2022/06/16 10:31:58;;;;;;;;;;;;;;;30.95;27.86;99644.25;8338493;28;19933;-70
2022/06/16 10:36:12;;;;;;;;;;;;;;;31.14;27.67;99651.56;8341726;28;19964;-72
2022/06/16 10:40:25;;;;;;;;;;;;;;;31.21;27.71;99650.09;8337991;28;19939;-73
2022/06/16 10:44:27;;;;;;;;;;;;;;;31.05;27.58;99649.66;8327570;28;19936;-72
2022/06/16 10:48:34;;;;;;;;;;;;;;;31.13;28.10;99651.69;8329277;28;19929;-72
2022/06/16 10:52:39;;;;;;;;;;;;;;;31.20;27.28;99643.00;8318648;28;19963;-72
2022/06/16 10:56:40;;;;;;;;;;;;;;;31.38;25.71;99642.41;8327675;28;19972;-72
2022/06/16 11:00:42;;;;;;;;;;;;;;;31.40;28.37;99652.03;8321228;28;20342;-72
2022/06/16 11:04:49;;;;;;;;;;;;;;;31.52;25.58;99639.38;8334040;28;19972;-72
2022/06/16 11:08:55;;;;;;;;;;;;;;;31.53;25.58;99641.09;8297886;28;20024;-72
2022/06/16 11:12:57;;;;;;;;;;;;;;;31.41;25.83;99634.09;8328633;28;19939;-72
2022/06/16 11:16:59;;;;;;;;;;;;;;;31.52;24.80;99637.53;8326226;28;20009;-72
2022/06/16 11:21:10;;;;;;;;;;;;;;;31.54;23.53;99640.94;8330978;28;19936;-72
2022/06/16 11:25:33;;;;;;;;;;;;;;;31.63;23.13;99635.78;8323293;28;19979;-71
2022/06/16 11:29:35;;;;;;;;;;;;;;;31.66;23.66;99633.66;8308152;28;20024;-70
2022/06/16 11:38:09;;;;;;;;;;;;;;;31.71;23.78;99635.94;8328686;28;19972;-71
2022/06/16 11:42:24;;;;;;;;;;;;;;;31.81;23.37;99647.59;8323542;28;19979;-71
2022/06/16 11:46:38;;;;;;;;;;;;;;;31.31;25.72;99635.88;8298715;28;19967;-70
2022/06/16 11:50:46;;;;;;;;;;;;;;;31.42;24.54;99631.31;8312505;28;19932;-71
2022/06/16 11:54:47;;;;;;;;;;;;;;;31.48;24.82;99636.13;8334423;28;19960;-71
2022/06/16 11:58:56;;;;;;;;;;;;;;;31.42;26.06;99649.22;8327788;28;20025;-71
2022/06/16 12:02:57;;;;;;;;;;;;;;;31.55;25.90;99648.00;8297253;28;19979;-71
2022/06/16 12:07:17;;;;;;;;;;;;;;;31.72;24.94;99638.50;8302436;28;19934;-71
2022/06/16 12:11:27;;;;;;;;;;;;;;;31.82;26.50;99652.84;8327690;28;19929;-71
2022/06/16 12:15:53;;;;;;;;;;;;;;;31.76;22.38;99642.63;8330373;28;19929;-71
2022/06/16 12:20:02;;;;;;;;;;;;;;;31.72;24.13;99643.00;8338721;28;20368;-71
2022/06/16 12:24:29;;;;;;;;;;;;;;;31.97;24.16;99649.78;8331108;28;19929;-71
2022/06/16 12:28:51;;;;;;;;;;;;;;;31.76;24.23;99650.69;8337925;28;19972;-71
2022/06/16 12:33:04;;;;;;;;;;;;;;;31.45;25.05;99639.06;8305598;28;20036;-71
2022/06/16 12:37:08;;;;;;;;;;;;;;;31.42;23.47;99639.34;8331170;28;19928;-72
2022/06/16 12:41:15;;;;;;;;;;;;;;;31.63;24.04;99649.19;8327076;28;19929;-71
2022/06/16 12:45:19;;;;;;;;;;;;;;;31.37;23.98;99644.25;8326117;28;20530;-73
2022/06/16 12:49:35;;;;;;;;;;;;;;;31.83;25.29;99642.94;8331295;28;19929;-73
2022/06/16 12:53:41;;;;;;;;;;;;;;;32.01;22.35;99643.16;8324747;28;19928;-72
2022/06/16 12:57:46;;;;;;;;;;;;;;;32.10;23.07;99648.53;8319983;28;19932;-73
2022/06/16 13:01:49;;;;;;;;;;;;;;;32.10;22.66;99636.94;8327056;28;20408;-72
2022/06/16 13:05:52;;;;;;;;;;;;;;;32.00;22.82;99644.97;8330928;28;19929;-72
2022/06/16 13:09:54;;;;;;;;;;;;;;;32.15;23.12;99637.38;8326191;28;20031;-72
2022/06/16 13:14:01;;;;;;;;;;;;;;;31.87;22.74;99633.63;8319857;28;19987;-72
2022/06/16 13:18:13;;;;;;;;;;;;;;;31.96;23.15;99642.69;8316940;28;19929;-72
2022/06/16 13:22:23;;;;;;;;;;;;;;;31.94;22.61;99631.22;8315162;28;19968;-72
2022/06/16 13:26:26;;;;;;;;;;;;;;;31.98;22.06;99621.94;8321089;28;19929;-72
2022/06/16 13:30:30;;;;;;;;;;;;;;;31.94;21.79;99624.00;8325451;28;19929;-72
2022/06/16 13:34:48;;;;;;;;;;;;;;;31.72;22.50;99630.44;8309821;28;19971;-72
2022/06/16 13:38:50;;;;;;;;;;;;;;;31.58;21.92;99620.03;8298131;28;19929;-72
2022/06/16 13:42:52;;;;;;;;;;;;;;;31.49;22.69;99613.66;8329443;28;19939;-72
2022/06/16 13:46:56;;;;;;;;;;;;;;;31.55;23.46;99613.09;8321431;28;19967;-70
2022/06/16 13:50:59;;;;;;;;;;;;;;;31.77;23.02;99612.09;8334045;28;19939;-70
2022/06/16 13:55:22;;;;;;;;;;;;;;;32.03;23.67;99615.16;8324890;28;20043;-70
2022/06/16 13:59:28;;;;;;;;;;;;;;;32.19;23.55;99616.47;8327740;28;20023;-70
2022/06/16 14:03:30;;;;;;;;;;;;;;;32.08;22.21;99617.41;8305135;28;20569;-70
2022/06/16 14:07:32;;;;;;;;;;;;;;;32.05;21.02;99610.47;8333823;28;20342;-70
2022/06/16 14:11:34;;;;;;;;;;;;;;;31.92;20.61;99607.19;8332088;28;20032;-70
2022/06/16 14:15:42;;;;;;;;;;;;;;;31.71;22.12;99587.59;8330009;28;19929;-70
2022/06/16 14:19:44;;;;;;;;;;;;;;;31.64;22.59;99597.19;8331189;28;19976;-70
2022/06/16 14:24:06;;;;;;;;;;;;;;;31.62;22.76;99602.69;8333100;28;20807;-70
2022/06/16 14:28:09;;;;;;;;;;;;;;;31.51;22.35;99605.47;8339733;28;19929;-72
2022/06/16 14:32:16;;;;;;;;;;;;;;;31.61;21.28;99609.06;8327393;28;20002;-73
2022/06/16 14:36:30;;;;;;;;;;;;;;;31.73;22.51;99621.41;8331637;28;20285;-74
2022/06/16 14:40:34;;;;;;;;;;;;;;;31.90;22.65;99619.06;8326819;28;20325;-73
2022/06/16 14:44:39;;;;;;;;;;;;;;;32.11;22.37;99622.50;8330850;28;20388;-73
2022/06/16 14:48:42;;;;;;;;;;;;;;;32.00;20.63;99628.00;8332941;28;19929;-73
2022/06/16 14:52:52;;;;;;;;;;;;;;;31.78;20.50;99615.66;8313913;28;19935;-73
2022/06/16 14:56:55;;;;;;;;;;;;;;;31.89;21.71;99617.38;8333664;28;19951;-73
2022/06/16 15:00:57;;;;;;;;;;;;;;;32.03;21.42;99625.91;8309230;28;19973;-73
2022/06/16 15:05:07;;;;;;;;;;;;;;;32.19;21.78;99633.44;8327879;28;20342;-73
2022/06/16 15:09:22;;;;;;;;;;;;;;;32.25;20.72;99623.94;8313378;28;20040;-73
2022/06/16 15:13:24;;;;;;;;;;;;;;;32.28;21.98;99619.19;8312419;28;19929;-73
2022/06/16 15:21:47;;;;;;;;;;;;;;;32.24;20.96;99623.09;8333277;28;19929;-73
2022/06/16 15:25:54;;;;;;;;;;;;;;;32.02;20.01;99631.41;8325609;28;20233;-73
2022/06/16 15:29:55;;;;;;;;;;;;;;;32.00;21.31;99628.00;8332039;28;19987;-73
2022/06/16 15:38:23;;;;;;;;;;;;;;;31.73;20.50;99615.19;8336130;28;19928;-72
2022/06/16 15:42:25;;;;;;;;;;;;;;;31.68;20.95;99603.97;8330169;28;19929;-72
2022/06/16 15:46:27;;;;;;;;;;;;;;;31.63;22.15;99600.88;8307483;28;19939;-73
2022/06/16 15:50:29;;;;;;;;;;;;;;;31.58;22.79;99604.78;8331886;28;20040;-72
2022/06/16 15:54:38;;;;;;;;;;;;;;;31.50;23.61;99612.69;8330020;28;20409;-72
2022/06/16 15:58:39;;;;;;;;;;;;;;;31.32;23.21;99611.59;8310978;28;19964;-72
2022/06/16 16:02:42;;;;;;;;;;;;;;;31.14;21.81;99618.53;8317605;28;19972;-72
2022/06/16 16:06:45;;;;;;;;;;;;;;;30.90;23.39;99627.69;8326834;28;20399;-72
2022/06/16 16:10:49;;;;;;;;;;;;;;;31.08;25.22;99627.97;8320806;28;20417;-71
2022/06/16 16:14:54;;;;;;;;;;;;;;;31.27;25.27;99628.09;8332187;28;19933;-72
2022/06/16 16:19:05;;;;;;;;;;;;;;;31.24;23.72;99627.53;8330797;28;20301;-73
2022/06/16 16:23:14;;;;;;;;;;;;;;;31.20;23.61;99629.59;8328845;28;20330;-73
2022/06/16 16:27:23;;;;;;;;;;;;;;;31.15;22.51;99639.00;8300636;28;19939;-73
2022/06/16 16:31:25;;;;;;;;;;;;;;;31.16;24.05;99644.22;8330620;28;19941;-72
2022/06/16 16:35:27;;;;;;;;;;;;;;;30.88;22.31;99634.16;8335470;28;19928;-73
2022/06/16 16:39:35;;;;;;;;;;;;;;;30.59;23.99;99639.25;8328499;28;19966;-72
2022/06/16 16:43:40;;;;;;;;;;;;;;;30.17;26.11;99649.03;8297764;28;19929;-72
2022/06/16 16:48:00;;;;;;;;;;;;;;;29.82;25.51;99646.47;8323162;28;19929;-72
2022/06/16 16:52:03;;;;;;;;;;;;;;;29.50;27.66;99646.34;8330025;28;19929;-72
2022/06/16 16:56:07;;;;;;;;;;;;;;;29.30;25.98;99630.00;8328327;28;19991;-73
2022/06/16 17:00:14;;;;;;;;;;;;;;;29.11;25.47;99621.69;8304546;28;20368;-71
2022/06/16 17:04:21;;;;;;;;;;;;;;;29.00;25.00;99619.84;8333874;28;20539;-71
2022/06/16 17:08:22;;;;;;;;;;;;;;;28.81;25.83;99623.03;8328741;28;19944;-71
2022/06/16 17:12:24;;;;;;;;;;;;;;;28.70;25.67;99606.94;8326524;28;20668;-73
2022/06/16 17:16:32;;;;;;;;;;;;;;;28.52;26.59;99619.88;8322615;28;19929;-72
2022/06/16 17:20:34;;;;;;;;;;;;;;;28.31;25.42;99617.97;8324893;28;20296;-72
2022/06/16 17:24:36;;;;;;;;;;;;;;;28.17;25.94;99618.94;8307299;28;20024;-72
2022/06/16 17:28:38;;;;;;;;;;;;;;;27.99;26.68;99629.13;8290138;28;19940;-72
2022/06/16 17:32:39;;;;;;;;;;;;;;;27.78;25.78;99628.88;8309631;28;20052;-72
2022/06/16 17:36:41;;;;;;;;;;;;;;;27.64;27.05;99637.00;8306002;28;19944;-72
2022/06/16 17:40:42;;;;;;;;;;;;;;;27.51;28.73;99641.50;8305781;28;20060;-72
2022/06/16 17:44:44;;;;;;;;;;;;;;;27.41;26.89;99638.59;8331492;28;19936;-72
2022/06/16 17:48:45;;;;;;;;;;;;;;;27.40;27.18;99634.22;8304287;28;19929;-72
2022/06/16 18:01:20;;;;;;;;;;;;;;;27.13;29.48;99645.00;8322852;28;19979;-70
2022/06/16 18:05:22;;;;;;;;;;;;;;;26.89;30.20;99642.16;8320318;28;19948;-70
2022/06/16 18:09:23;;;;;;;;;;;;;;;26.76;28.69;99649.28;8332907;28;19929;-70
2022/06/16 18:13:26;;;;;;;;;;;;;;;26.60;31.27;99651.25;8332237;28;19938;-70
2022/06/16 18:17:28;;;;;;;;;;;;;;;26.37;30.88;99644.75;8327360;28;20023;-68
2022/06/16 18:21:32;;;;;;;;;;;;;;;26.17;29.67;99654.88;8341717;28;19929;-68
2022/06/16 18:25:37;;;;;;;;;;;;;;;26.01;29.93;99659.44;8336894;28;19968;-68
2022/06/16 18:29:39;;;;;;;;;;;;;;;25.85;30.76;99659.59;8340712;28;19929;-69
2022/06/16 18:33:40;;;;;;;;;;;;;;;25.71;29.10;99656.09;8332235;28;19935;-69
2022/06/16 18:38:01;;;;;;;;;;;;;;;25.65;30.62;99662.59;8310792;28;20356;-73
2022/06/16 18:42:04;;;;;;;;;;;;;;;25.55;29.37;99664.97;8333246;28;20060;-73
2022/06/16 18:46:13;;;;;;;;;;;;;;;25.42;29.78;99673.78;8334158;28;20413;-73
2022/06/16 18:50:15;;;;;;;;;;;;;;;25.29;33.02;99682.50;8311949;28;19934;-73
2022/06/16 18:54:17;;;;;;;;;;;;;;;25.06;34.12;99688.34;8318195;28;19967;-77
2022/06/16 18:58:19;;;;;;;;;;;;;;;24.87;35.86;99693.00;8327195;28;19955;-76
2022/06/16 19:02:22;;;;;;;;;;;;;;;24.70;34.85;99686.88;8306681;28;20478;-75
2022/06/16 19:06:29;;;;;;;;;;;;;;;24.61;35.11;99690.06;8330744;28;19979;-76
2022/06/16 19:10:30;;;;;;;;;;;;;;;24.50;33.44;99683.66;8338143;28;19940;-78
2022/06/16 19:14:32;;;;;;;;;;;;;;;24.36;33.92;99703.00;8316633;28;20425;-77
2022/06/16 19:18:34;;;;;;;;;;;;;;;24.29;32.96;99714.91;8321220;28;19968;-77
2022/06/16 19:22:37;;;;;;;;;;;;;;;24.22;33.20;99721.44;8316914;28;20307;-77
2022/06/16 19:26:39;;;;;;;;;;;;;;;24.15;33.14;99728.03;8322357;28;20032;-76
2022/06/16 19:30:44;;;;;;;;;;;;;;;24.02;32.67;99734.00;8312720;28;20654;-76
2022/06/16 19:34:46;;;;;;;;;;;;;;;23.97;32.58;99740.50;8321363;28;19939;-76
2022/06/16 19:38:55;;;;;;;;;;;;;;;23.89;32.72;99742.72;8320750;28;19935;-76
2022/06/16 19:42:58;;;;;;;;;;;;;;;23.78;32.42;99756.56;8310410;28;20303;-75
2022/06/16 19:51:19;;;;;;;;;;;;;;;23.53;32.98;99767.56;8333614;28;20342;-75
2022/06/16 19:55:21;;;;;;;;;;;;;;;23.44;33.03;99782.13;8330778;28;20995;-75
2022/06/16 19:59:23;;;;;;;;;;;;;;;23.32;33.73;99787.19;8331685;28;19975;-76
2022/06/16 20:03:26;;;;;;;;;;;;;;;23.22;33.71;99802.69;8308549;28;19950;-76
2022/06/16 20:07:27;;;;;;;;;;;;;;;23.09;33.90;99791.84;8328761;28;19947;-75
2022/06/16 20:11:29;;;;;;;;;;;;;;;22.97;34.95;99791.56;8312549;28;20651;-76
2022/06/16 20:15:30;;;;;;;;;;;;;;;22.83;33.95;99805.50;8305085;28;20579;-75
2022/06/16 20:19:32;;;;;;;;;;;;;;;22.75;33.88;99807.63;8310916;28;19968;-76
2022/06/16 20:23:36;;;;;;;;;;;;;;;22.61;34.10;99811.75;8313431;28;20245;-76
2022/06/16 20:27:38;;;;;;;;;;;;;;;22.52;34.89;99812.22;8334231;28;20355;-76
2022/06/16 20:31:40;;;;;;;;;;;;;;;22.42;35.70;99813.56;8332313;28;19991;-76
2022/06/16 20:35:42;;;;;;;;;;;;;;;22.28;35.59;99830.09;8323681;28;19929;-76
2022/06/16 20:39:43;;;;;;;;;;;;;;;22.19;35.93;99821.69;8303672;28;19935;-76
2022/06/16 20:43:45;;;;;;;;;;;;;;;22.06;35.38;99824.00;8329263;28;20040;-76
2022/06/16 20:47:46;;;;;;;;;;;;;;;21.98;35.27;99840.19;8331693;28;19995;-76
2022/06/16 20:51:48;;;;;;;;;;;;;;;21.91;35.08;99844.06;8333715;28;19935;-76
2022/06/16 20:55:50;;;;;;;;;;;;;;;21.86;34.67;99858.38;8303611;28;19939;-76
2022/06/16 21:04:12;;;;;;;;;;;;;;;21.76;35.07;99873.78;8330813;28;19932;-77
2022/06/16 21:08:19;;;;;;;;;;;;;;;21.67;35.45;99879.44;8308352;28;20012;-77
2022/06/16 21:12:21;;;;;;;;;;;;;;;21.59;35.50;99874.50;8319242;28;20797;-77
2022/06/16 21:16:22;;;;;;;;;;;;;;;21.52;36.79;99883.59;8321166;28;19972;-77
2022/06/16 21:20:32;;;;;;;;;;;;;;;21.41;35.68;99888.47;8310568;28;19937;-77
2022/06/16 21:24:33;;;;;;;;;;;;;;;21.32;35.40;99887.03;8306293;28;20341;-77
2022/06/16 21:28:35;;;;;;;;;;;;;;;21.28;36.05;99872.25;8326768;28;19929;-77
2022/06/16 21:32:36;;;;;;;;;;;;;;;21.21;36.12;99877.81;8312926;28;19929;-76
2022/06/16 21:36:38;;;;;;;;;;;;;;;21.13;35.54;99876.31;8299013;28;19964;-77
2022/06/16 21:40:40;;;;;;;;;;;;;;;21.07;36.45;99868.66;8288978;28;21332;-76
2022/06/16 21:44:41;;;;;;;;;;;;;;;21.00;36.63;99861.88;8288832;28;19934;-77
2022/06/16 21:48:44;;;;;;;;;;;;;;;20.91;36.99;99867.53;8286513;28;19933;-76
2022/06/16 21:52:46;;;;;;;;;;;;;;;20.82;36.91;99865.25;8313164;28;19935;-76
2022/06/16 21:56:47;;;;;;;;;;;;;;;20.60;40.32;99875.75;8329758;28;19929;-77
2022/06/16 22:00:49;;;;;;;;;;;;;;;20.29;42.64;99881.31;8327978;28;19929;-77
2022/06/16 22:04:51;;;;;;;;;;;;;;;20.02;40.82;99888.41;8333303;28;19933;-77
2022/06/16 22:08:53;;;;;;;;;;;;;;;20.00;40.36;99884.97;8324660;28;19973;-77
2022/06/16 22:12:54;;;;;;;;;;;;;;;20.01;39.29;99883.19;8311743;28;19929;-76
2022/06/16 22:16:56;;;;;;;;;;;;;;;20.04;38.67;99883.06;8309718;28;20008;-77
2022/06/16 22:20:58;;;;;;;;;;;;;;;20.06;38.81;99884.75;8333050;28;19928;-77
2022/06/16 22:25:00;;;;;;;;;;;;;;;20.06;39.04;99887.38;8331699;28;20040;-76